Time;durP1;ratioP1;P1;durP2;ratioP2;P2;SDS_P1;SDS_P2;PMS_P1;PMS_P2;Temp;Humidity;BMP_temperature;BMP_pressure;BME280_temperature;BME280_humidity;BME280_pressure;Samples;Min_cycle;Max_cycle;Signal;HPM_P1;HPM_P2
2024/02/22 00:00:53;;;;;;;2.50;2.00;;;;;;;9.51;81.78;99345.13;5092643;28;20658;-74
2024/02/22 00:03:19;;;;;;;2.27;2.00;;;;;;;9.46;82.65;99319.25;5093420;28;20224;-75
2024/02/22 00:05:47;;;;;;;3.03;2.07;;;;;;;9.43;83.36;99290.69;5092727;28;20200;-75
2024/02/22 00:08:13;;;;;;;3.27;2.70;;;;;;;9.39;85.62;99256.97;5091904;28;20731;-76
2024/02/22 00:10:41;;;;;;;3.03;2.70;;;;;;;9.64;84.48;99225.75;5092655;28;20226;-76
2024/02/22 00:13:08;;;;;;;3.23;2.40;;;;;;;9.75;84.01;99228.81;5093171;28;20239;-76
2024/02/22 00:15:34;;;;;;;2.20;2.00;;;;;;;9.32;84.38;99238.13;5094090;28;20655;-75
2024/02/22 00:18:04;;;;;;;2.23;2.00;;;;;;;9.57;85.28;99195.59;5092004;28;20783;-76
2024/02/22 00:20:30;;;;;;;2.57;2.07;;;;;;;9.66;85.29;99197.91;5092648;28;20614;-76
2024/02/22 00:22:59;;;;;;;2.63;2.00;;;;;;;9.70;84.79;99202.09;5091901;28;20220;-75
2024/02/22 00:25:26;;;;;;;3.53;2.13;;;;;;;9.82;84.42;99185.16;5092068;28;20200;-75
2024/02/22 00:27:52;;;;;;;2.03;1.83;;;;;;;9.84;84.93;99183.34;5092368;28;20203;-76
2024/02/22 00:30:20;;;;;;;3.03;2.20;;;;;;;9.60;85.03;99179.88;5091725;28;20253;-77
2024/02/22 00:32:46;;;;;;;2.17;1.80;;;;;;;9.73;85.82;99155.06;5091642;28;20219;-75
2024/02/22 00:35:12;;;;;;;2.87;2.27;;;;;;;9.66;85.14;99162.25;5092079;28;20694;-75
2024/02/22 00:37:38;;;;;;;2.07;1.83;;;;;;;9.77;84.63;99166.22;5090933;28;20207;-76
2024/02/22 00:40:09;;;;;;;2.57;1.87;;;;;;;9.82;84.52;99152.13;5083221;28;20204;-76
2024/02/22 00:42:35;;;;;;;2.77;2.13;;;;;;;9.58;84.24;99159.06;5092010;28;20201;-76
2024/02/22 00:45:03;;;;;;;2.10;1.80;;;;;;;9.72;84.75;99159.44;5091971;28;20208;-75
2024/02/22 00:47:29;;;;;;;2.87;2.27;;;;;;;9.81;84.71;99152.19;5090476;28;20250;-75
2024/02/22 00:49:56;;;;;;;2.30;2.10;;;;;;;9.65;85.16;99120.63;5091920;28;20273;-77
2024/02/22 00:52:22;;;;;;;2.63;2.23;;;;;;;9.80;85.61;99121.81;5091584;28;20268;-76
2024/02/22 00:54:49;;;;;;;2.53;2.33;;;;;;;9.71;86.23;99105.63;5091747;28;20281;-76
2024/02/22 00:57:16;;;;;;;2.73;2.10;;;;;;;9.80;86.61;99088.78;5091280;28;20204;-77
2024/02/22 00:59:43;;;;;;;3.40;2.20;;;;;;;9.78;86.48;99087.16;5091509;28;20200;-75
2024/02/22 01:02:10;;;;;;;2.43;1.93;;;;;;;9.70;88.53;99053.56;5090293;28;20254;-77
2024/02/22 01:04:37;;;;;;;1.90;1.70;;;;;;;9.77;87.70;99043.75;5091146;28;20302;-76
2024/02/22 01:07:03;;;;;;;3.47;2.20;;;;;;;9.83;87.21;99046.13;5091061;28;20208;-75
2024/02/22 01:09:30;;;;;;;2.40;2.20;;;;;;;9.89;87.44;99031.13;5090918;28;20224;-74
2024/02/22 01:11:56;;;;;;;2.57;2.30;;;;;;;9.75;88.61;99028.16;5091376;28;20261;-77
2024/02/22 01:14:24;;;;;;;2.20;2.07;;;;;;;9.77;89.25;98997.69;5091021;28;20296;-76
2024/02/22 01:16:50;;;;;;;2.13;1.93;;;;;;;9.70;89.86;98964.97;5090795;28;20208;-76
2024/02/22 01:19:17;;;;;;;2.30;2.10;;;;;;;9.71;89.99;98956.25;5091633;28;20204;-76
2024/02/22 01:21:43;;;;;;;2.37;2.17;;;;;;;9.67;89.79;98960.75;5091379;28;20214;-75
2024/02/22 01:24:10;;;;;;;3.73;2.50;;;;;;;9.41;91.40;98930.47;5091377;28;20224;-76
2024/02/22 01:26:36;;;;;;;2.83;2.60;;;;;;;9.47;91.96;98912.00;5090756;28;20204;-76
2024/02/22 01:29:03;;;;;;;2.80;1.90;;;;;;;9.46;92.54;98881.69;5090903;28;20284;-77
2024/02/22 01:31:31;;;;;;;2.90;1.97;;;;;;;9.50;92.19;98879.81;5081647;28;20235;-76
2024/02/22 01:33:58;;;;;;;2.97;2.40;;;;;;;9.60;91.87;98883.72;5090986;28;20224;-76
2024/02/22 01:36:24;;;;;;;2.60;2.40;;;;;;;9.58;92.31;98871.69;5090793;28;20701;-75
2024/02/22 01:38:50;;;;;;;2.23;2.13;;;;;;;9.53;92.08;98870.13;5090484;28;20208;-77
2024/02/22 01:41:17;;;;;;;2.50;2.30;;;;;;;9.58;92.55;98863.88;5090959;28;20211;-76
2024/02/22 01:43:43;;;;;;;2.30;2.07;;;;;;;9.70;91.17;98868.56;5091029;28;20367;-76
2024/02/22 01:46:10;;;;;;;3.00;2.67;;;;;;;9.71;91.90;98859.84;5089940;28;20268;-78
2024/02/22 01:48:39;;;;;;;2.33;2.13;;;;;;;9.71;92.18;98846.81;5093223;28;20268;-77
2024/02/22 01:51:06;;;;;;;2.30;2.10;;;;;;;9.66;92.27;98839.19;5094485;28;20210;-76
2024/02/22 01:53:33;;;;;;;2.60;2.40;;;;;;;9.71;92.41;98828.56;5094702;28;20220;-75
2024/02/22 01:56:01;;;;;;;2.00;1.90;;;;;;;9.66;92.82;98833.97;5094062;28;20207;-75
2024/02/22 01:58:32;;;;;;;2.60;2.40;;;;;;;9.81;92.50;98827.31;5094167;28;20223;-77
2024/02/22 02:00:59;;;;;;;2.73;2.00;;;;;;;9.81;92.19;98839.47;5095109;28;20208;-73
2024/02/22 02:03:26;;;;;;;2.33;2.13;;;;;;;9.67;93.33;98822.66;5094806;28;20734;-75
2024/02/22 02:05:54;;;;;;;2.17;1.97;;;;;;;9.48;94.06;98799.13;5095112;28;20654;-76
2024/02/22 02:08:20;;;;;;;2.97;2.27;;;;;;;9.53;94.03;98796.31;5094508;28;20564;-77
2024/02/22 02:10:47;;;;;;;2.73;2.30;;;;;;;9.48;95.52;98775.69;5094699;28;20246;-74
2024/02/22 02:13:13;;;;;;;2.50;2.30;;;;;;;9.69;94.56;98765.25;5094059;28;20243;-76
2024/02/22 02:15:40;;;;;;;1.97;1.87;;;;;;;9.71;93.60;98779.94;5094472;28;20204;-76
2024/02/22 02:18:06;;;;;;;2.33;2.13;;;;;;;9.25;94.91;98784.41;5094043;28;20208;-76
2024/02/22 02:20:38;;;;;;;2.73;2.20;;;;;;;9.36;95.83;98750.16;5086141;28;20220;-76
2024/02/22 02:23:20;;;;;;;2.30;2.10;;;;;;;9.27;96.98;98727.91;5093780;28;20707;-76
2024/02/22 02:25:48;;;;;;;2.57;2.17;;;;;;;9.40;97.73;98709.22;5095069;28;20208;-77
2024/02/22 02:28:14;;;;;;;2.17;1.90;;;;;;;9.44;97.49;98705.56;5094012;28;20210;-76
2024/02/22 02:30:41;;;;;;;2.13;1.90;;;;;;;9.34;97.43;98702.50;5094120;28;20227;-76
2024/02/22 02:33:07;;;;;;;2.20;2.00;;;;;;;9.41;97.75;98690.88;5093486;28;20763;-76
2024/02/22 02:35:37;;;;;;;2.13;1.83;;;;;;;9.43;98.02;98683.84;5094460;28;20252;-77
2024/02/22 02:38:05;;;;;;;3.50;2.00;;;;;;;9.38;98.12;98667.59;5093419;28;20210;-76
2024/02/22 02:40:31;;;;;;;2.63;1.77;;;;;;;9.48;97.31;98675.88;5094144;28;20678;-77
2024/02/22 02:42:59;;;;;;;1.73;1.63;;;;;;;9.58;96.95;98671.13;5094024;28;20285;-77
2024/02/22 02:45:25;;;;;;;3.13;1.87;;;;;;;9.21;98.15;98670.06;5093875;28;20256;-76
2024/02/22 02:47:51;;;;;;;2.53;2.33;;;;;;;9.32;99.71;98629.66;5093075;28;20201;-77
2024/02/22 02:50:18;;;;;;;2.13;1.60;;;;;;;9.39;99.25;98624.16;5093550;28;20253;-75
2024/02/22 02:52:44;;;;;;;2.07;1.90;;;;;;;9.39;99.02;98627.59;5093722;28;20204;-77
2024/02/22 02:55:12;;;;;;;1.70;1.60;;;;;;;9.40;99.08;98615.47;5094397;28;20747;-76
2024/02/22 02:57:38;;;;;;;1.93;1.50;;;;;;;9.26;99.91;98613.44;5084764;28;20204;-77
2024/02/22 03:00:12;;;;;;;3.30;1.57;;;;;;;9.44;99.62;98602.22;5093459;28;20242;-76
2024/02/22 03:02:39;;;;;;;1.53;1.43;;;;;;;9.46;99.57;98616.03;5093436;28;20288;-77
2024/02/22 03:05:06;;;;;;;2.23;1.37;;;;;;;9.56;98.67;98616.47;5093539;28;20208;-77
2024/02/22 03:07:32;;;;;;;1.80;1.23;;;;;;;9.42;99.29;98614.47;5093605;28;20204;-78
2024/02/22 03:09:59;;;;;;;1.50;1.40;;;;;;;9.50;98.31;98620.19;5093621;28;20269;-77
2024/02/22 03:12:25;;;;;;;1.20;1.10;;;;;;;9.52;98.83;98602.72;5092778;28;20216;-76
2024/02/22 03:14:52;;;;;;;1.30;1.17;;;;;;;9.61;98.41;98608.44;5093993;28;20207;-73
2024/02/22 03:17:24;;;;;;;1.30;1.20;;;;;;;9.62;98.23;98618.81;5092401;28;20254;-76
2024/02/22 03:19:52;;;;;;;2.63;1.53;;;;;;;9.71;97.73;98621.00;5093035;28;20742;-76
2024/02/22 03:22:19;;;;;;;1.73;1.17;;;;;;;9.38;98.52;98617.28;5093080;28;20204;-76
2024/02/22 03:24:45;;;;;;;1.27;1.20;;;;;;;9.47;99.27;98602.06;5093147;28;20223;-77
2024/02/22 03:27:11;;;;;;;1.17;1.10;;;;;;;9.55;100.00;98586.13;5092695;28;20208;-75
2024/02/22 03:29:39;;;;;;;1.93;1.50;;;;;;;9.52;99.99;98581.06;5093036;28;20231;-77
2024/02/22 03:32:06;;;;;;;1.17;0.90;;;;;;;9.45;99.49;98580.47;5091925;28;20204;-76
2024/02/22 03:34:34;;;;;;;1.27;1.10;;;;;;;9.44;100.00;98575.34;5092598;28;20281;-76
2024/02/22 03:37:02;;;;;;;1.10;1.00;;;;;;;9.58;100.00;98551.28;5092758;28;20212;-77
2024/02/22 03:39:28;;;;;;;2.03;1.20;;;;;;;9.52;100.00;98557.63;5085068;28;20270;-78
2024/02/22 03:41:55;;;;;;;1.00;1.00;;;;;;;9.50;100.00;98536.84;5093554;28;20211;-77
2024/02/22 03:44:21;;;;;;;1.10;1.00;;;;;;;9.55;100.00;98541.84;5092848;28;20224;-77
2024/02/22 03:46:48;;;;;;;1.03;1.03;;;;;;;9.40;100.00;98550.38;5083165;28;20204;-77
2024/02/22 03:49:15;;;;;;;1.50;1.40;;;;;;;9.51;100.00;98528.13;5092393;28;20200;-78
2024/02/22 03:51:43;;;;;;;1.20;0.90;;;;;;;9.57;100.00;98532.19;5092134;28;20257;-77
2024/02/22 03:54:09;;;;;;;1.33;0.90;;;;;;;9.61;100.00;98517.28;5091819;28;20646;-76
2024/02/22 03:56:37;;;;;;;1.13;0.97;;;;;;;9.64;100.00;98517.16;5091786;28;20687;-77
2024/02/22 03:59:04;;;;;;;0.70;0.70;;;;;;;9.64;100.00;98520.59;5092499;28;20254;-75
2024/02/22 04:01:31;;;;;;;2.10;0.90;;;;;;;9.63;99.96;98528.47;5091486;28;20578;-77
2024/02/22 04:03:57;;;;;;;0.80;0.80;;;;;;;9.52;100.00;98518.56;5092831;28;20224;-77
2024/02/22 04:06:24;;;;;;;1.27;0.80;;;;;;;9.66;100.00;98520.53;5091711;28;20200;-77
2024/02/22 04:08:52;;;;;;;1.17;0.80;;;;;;;9.60;100.00;98516.44;5092046;28;20281;-76
2024/02/22 04:11:18;;;;;;;0.60;0.60;;;;;;;9.70;99.93;98517.69;5090780;28;20223;-77
2024/02/22 04:13:45;;;;;;;0.60;0.60;;;;;;;9.62;100.00;98516.38;5091918;28;20228;-76
2024/02/22 04:16:12;;;;;;;0.73;0.73;;;;;;;9.45;100.00;98507.53;5091900;28;20283;-77
2024/02/22 04:18:38;;;;;;;0.50;0.50;;;;;;;9.58;100.00;98491.38;5092643;28;20232;-77
2024/02/22 04:21:05;;;;;;;0.70;0.70;;;;;;;9.64;100.00;98491.09;5092571;28;20282;-77
2024/02/22 04:23:31;;;;;;;0.80;0.80;;;;;;;9.63;100.00;98495.47;5091765;28;20232;-75
2024/02/22 04:25:59;;;;;;;0.70;0.70;;;;;;;9.65;100.00;98475.41;5091739;28;20624;-76
2024/02/22 04:28:25;;;;;;;0.60;0.60;;;;;;;9.55;100.00;98471.50;5092043;28;20212;-77
2024/02/22 04:30:52;;;;;;;0.50;0.50;;;;;;;9.61;100.00;98458.19;5092283;28;20232;-76
2024/02/22 04:33:18;;;;;;;0.60;0.60;;;;;;;9.36;100.00;98444.66;5092049;28;20596;-75
2024/02/22 04:35:45;;;;;;;0.60;0.60;;;;;;;9.32;100.00;98418.75;5091978;28;20626;-77
2024/02/22 04:38:12;;;;;;;0.57;0.57;;;;;;;9.43;100.00;98418.22;5091814;28;20204;-76
2024/02/22 04:40:39;;;;;;;0.70;0.70;;;;;;;9.42;100.00;98424.38;5091852;28;20204;-77
2024/02/22 04:43:07;;;;;;;0.60;0.50;;;;;;;9.62;100.00;98423.44;5092530;28;20273;-76
2024/02/22 04:45:34;;;;;;;0.80;0.80;;;;;;;9.67;100.00;98436.22;5092783;28;20254;-76
2024/02/22 04:48:01;;;;;;;0.50;0.50;;;;;;;9.60;100.00;98424.44;5091213;28;20205;-76
2024/02/22 04:50:27;;;;;;;0.63;0.50;;;;;;;9.42;100.00;98426.97;5090944;28;20231;-76
2024/02/22 04:52:55;;;;;;;1.07;0.50;;;;;;;9.54;100.00;98423.78;5091502;28;20235;-76
2024/02/22 04:55:22;;;;;;;0.53;0.53;;;;;;;9.63;100.00;98419.06;5091878;28;20208;-77
2024/02/22 04:57:49;;;;;;;0.60;0.60;;;;;;;9.58;100.00;98416.69;5091574;28;20203;-76
2024/02/22 05:00:18;;;;;;;0.53;0.53;;;;;;;9.41;100.00;98414.84;5089910;28;20253;-77
2024/02/22 05:02:45;;;;;;;0.50;0.50;;;;;;;9.61;100.00;98411.31;5091158;28;20295;-75
2024/02/22 05:05:11;;;;;;;0.60;0.60;;;;;;;9.70;100.00;98423.91;5091440;28;20261;-77
2024/02/22 05:07:37;;;;;;;0.50;0.50;;;;;;;9.78;100.00;98422.72;5090627;28;20658;-77
2024/02/22 05:10:06;;;;;;;1.37;0.50;;;;;;;9.67;100.00;98421.47;5090535;28;20566;-75
2024/02/22 05:12:33;;;;;;;0.97;0.60;;;;;;;9.56;100.00;98415.06;5083195;28;20213;-76
2024/02/22 05:14:59;;;;;;;0.53;0.40;;;;;;;9.71;100.00;98406.50;5091143;28;20623;-76
2024/02/22 05:17:27;;;;;;;0.50;0.50;;;;;;;9.79;100.00;98413.97;5090853;28;20204;-75
2024/02/22 05:19:54;;;;;;;0.50;0.50;;;;;;;9.73;100.00;98426.38;5091448;28;20261;-76
2024/02/22 05:22:20;;;;;;;0.50;0.50;;;;;;;9.79;100.00;98421.78;5090680;28;20269;-77
2024/02/22 05:24:46;;;;;;;0.40;0.40;;;;;;;9.52;100.00;98407.41;5090832;28;20223;-76
2024/02/22 05:27:13;;;;;;;0.40;0.40;;;;;;;9.67;100.00;98390.22;5090782;28;20245;-77
2024/02/22 05:29:39;;;;;;;0.47;0.47;;;;;;;9.79;100.00;98400.94;5089846;28;20238;-77
2024/02/22 05:32:06;;;;;;;0.63;0.40;;;;;;;9.63;100.00;98395.63;5089539;28;20228;-77
2024/02/22 05:34:33;;;;;;;0.40;0.40;;;;;;;9.68;100.00;98378.84;5090986;28;20228;-76
2024/02/22 05:37:00;;;;;;;0.43;0.43;;;;;;;9.53;100.00;98361.34;5089798;28;20205;-76
2024/02/22 05:39:26;;;;;;;0.50;0.50;;;;;;;9.65;100.00;98352.97;5091239;28;20252;-77
2024/02/22 05:41:52;;;;;;;0.40;0.40;;;;;;;9.46;100.00;98344.34;5094581;28;20225;-79
2024/02/22 05:44:19;;;;;;;0.30;0.30;;;;;;;9.52;100.00;98331.88;5095511;28;20240;-80
2024/02/22 05:46:45;;;;;;;0.67;0.47;;;;;;;9.68;100.00;98328.53;5092925;28;20204;-79
2024/02/22 05:49:11;;;;;;;0.30;0.30;;;;;;;9.56;100.00;98337.78;5095098;28;20265;-80
2024/02/22 05:51:40;;;;;;;0.70;0.37;;;;;;;9.67;100.00;98332.03;5094374;28;20220;-81
2024/02/22 05:54:06;;;;;;;0.40;0.40;;;;;;;9.32;100.00;98306.78;5094792;28;20307;-78
2024/02/22 05:56:33;;;;;;;0.60;0.40;;;;;;;9.39;100.00;98298.69;5094507;28;20195;-80
2024/02/22 05:58:59;;;;;;;0.30;0.30;;;;;;;9.51;100.00;98291.13;5096384;28;20205;-78
2024/02/22 06:01:25;;;;;;;0.33;0.33;;;;;;;9.65;100.00;98289.59;5095759;28;20268;-79
2024/02/22 06:03:52;;;;;;;0.37;0.37;;;;;;;9.66;100.00;98314.72;5096902;28;20253;-78
2024/02/22 06:06:19;;;;;;;1.40;0.50;;;;;;;9.60;100.00;98305.44;5096968;28;20277;-78
2024/02/22 06:08:46;;;;;;;0.20;0.20;;;;;;;9.77;100.00;98307.19;5096522;28;20200;-78
2024/02/22 06:11:17;;;;;;;0.57;0.30;;;;;;;9.70;100.00;98317.09;5095938;28;20283;-78
2024/02/22 06:13:43;;;;;;;0.20;0.20;;;;;;;9.74;100.00;98309.97;5096751;28;20228;-79
2024/02/22 06:16:10;;;;;;;0.30;0.30;;;;;;;9.61;100.00;98296.69;5097377;28;20196;-78
2024/02/22 06:18:36;;;;;;;0.30;0.30;;;;;;;9.72;100.00;98296.19;5097237;28;20204;-79
2024/02/22 06:21:03;;;;;;;0.30;0.30;;;;;;;9.73;100.00;98297.84;5096207;28;20197;-78
2024/02/22 06:23:29;;;;;;;0.67;0.40;;;;;;;9.81;100.00;98298.34;5094877;28;20726;-79
2024/02/22 06:25:57;;;;;;;0.40;0.40;;;;;;;9.84;100.00;98302.53;5084486;28;20230;-78
2024/02/22 06:28:24;;;;;;;0.60;0.40;;;;;;;9.91;100.00;98301.28;5092850;28;20613;-78
2024/02/22 06:30:50;;;;;;;0.30;0.30;;;;;;;9.84;100.00;98307.75;5097326;28;20221;-79
2024/02/22 06:33:16;;;;;;;0.30;0.30;;;;;;;9.88;100.00;98304.91;5094111;28;20223;-78
2024/02/22 06:35:43;;;;;;;0.33;0.33;;;;;;;9.77;100.00;98306.38;5093992;28;20268;-78
2024/02/22 06:38:09;;;;;;;0.30;0.30;;;;;;;9.77;100.00;98296.78;5094971;28;20201;-78
2024/02/22 06:40:35;;;;;;;0.30;0.30;;;;;;;9.78;100.00;98289.84;5099548;28;20273;-78
2024/02/22 06:43:05;;;;;;;0.30;0.30;;;;;;;9.58;100.00;98283.84;5102315;28;20254;-78
2024/02/22 06:45:31;;;;;;;0.30;0.30;;;;;;;9.59;100.00;98266.44;5100547;28;20203;-78
2024/02/22 06:47:58;;;;;;;0.60;0.50;;;;;;;9.72;100.00;98268.38;5091543;28;20743;-80
2024/02/22 06:50:24;;;;;;;0.57;0.57;;;;;;;9.80;100.00;98265.38;5099161;28;20204;-78
2024/02/22 06:52:51;;;;;;;0.40;0.40;;;;;;;9.88;100.00;98288.44;5098812;28;20232;-77
2024/02/22 06:55:18;;;;;;;1.17;0.40;;;;;;;9.85;100.00;98280.75;5097563;28;20208;-77
2024/02/22 06:57:45;;;;;;;0.30;0.30;;;;;;;9.86;100.00;98275.47;5098518;28;20204;-76
2024/02/22 07:00:14;;;;;;;0.33;0.33;;;;;;;9.96;100.00;98280.22;5098791;28;20601;-80
2024/02/22 07:02:40;;;;;;;0.40;0.40;;;;;;;9.85;100.00;98292.06;5096805;28;20196;-80
2024/02/22 07:05:07;;;;;;;0.40;0.40;;;;;;;9.71;100.00;98290.13;5097389;28;20200;-80
2024/02/22 07:07:34;;;;;;;0.43;0.40;;;;;;;9.86;100.00;98285.06;5097775;28;20261;-80
2024/02/22 07:10:00;;;;;;;0.63;0.40;;;;;;;9.91;100.00;98285.66;5092144;28;20257;-80
2024/02/22 07:12:26;;;;;;;1.60;0.30;;;;;;;9.91;100.00;98288.25;5099819;28;20281;-81
2024/02/22 07:14:53;;;;;;;0.70;0.30;;;;;;;9.76;100.00;98281.25;5098600;28;20216;-80
2024/02/22 07:17:21;;;;;;;0.60;0.30;;;;;;;9.85;100.00;98281.63;5098793;28;20200;-77
2024/02/22 07:19:49;;;;;;;2.20;0.40;;;;;;;9.84;100.00;98281.69;5097837;28;20251;-78
2024/02/22 07:22:15;;;;;;;0.30;0.30;;;;;;;9.66;100.00;98275.66;5096355;28;20202;-80
2024/02/22 07:24:42;;;;;;;0.87;0.30;;;;;;;9.54;100.00;98261.47;5097749;28;20224;-80
2024/02/22 07:27:09;;;;;;;0.20;0.20;;;;;;;9.61;100.00;98228.16;5095063;28;20200;-79
2024/02/22 07:29:35;;;;;;;0.30;0.30;;;;;;;9.70;100.00;98225.91;5095973;28;20200;-79
2024/02/22 07:32:03;;;;;;;0.40;0.30;;;;;;;9.54;100.00;98231.06;5094448;28;20250;-77
2024/02/22 07:34:31;;;;;;;1.33;0.30;;;;;;;9.59;100.00;98209.97;5094409;28;20216;-79
2024/02/22 07:36:57;;;;;;;0.67;0.40;;;;;;;9.46;100.00;98194.16;5094452;28;20200;-79
2024/02/22 07:39:24;;;;;;;1.43;0.30;;;;;;;9.50;100.00;98184.44;5095843;28;20215;-78
2024/02/22 07:41:50;;;;;;;2.23;0.60;;;;;;;9.52;100.00;98193.00;5095189;28;20253;-80
2024/02/22 07:44:17;;;;;;;1.50;0.70;;;;;;;9.64;100.00;98173.31;5099015;28;20289;-80
2024/02/22 07:46:43;;;;;;;0.28;0.28;;;;;;;9.65;100.00;98182.78;5090570;28;20454;-78
2024/02/22 07:49:10;;;;;;;0.10;0.10;;;;;;;9.61;100.00;98189.06;5091327;28;20200;-79
2024/02/22 07:51:38;;;;;;;0.20;0.20;;;;;;;9.70;100.00;98194.66;5097223;28;20228;-78
2024/02/22 07:54:04;;;;;;;0.30;0.30;;;;;;;9.76;100.00;98198.72;5087491;28;20220;-78
2024/02/22 07:56:31;;;;;;;0.50;0.33;;;;;;;9.81;100.00;98204.53;5096088;28;20231;-79
2024/02/22 07:58:58;;;;;;;0.20;0.20;;;;;;;9.80;100.00;98209.81;5095391;28;20207;-79
2024/02/22 08:01:24;;;;;;;0.50;0.50;;;;;;;9.85;100.00;98206.06;5095022;28;20200;-78
2024/02/22 08:03:53;;;;;;;0.57;0.33;;;;;;;9.93;100.00;98211.72;5095164;28;20281;-78
2024/02/22 08:06:20;;;;;;;0.53;0.40;;;;;;;9.82;100.00;98219.25;5094664;28;20291;-79
2024/02/22 08:08:48;;;;;;;0.53;0.40;;;;;;;9.98;100.00;98226.28;5093543;28;20686;-78
2024/02/22 08:11:15;;;;;;;0.70;0.30;;;;;;;10.00;100.00;98219.22;5094055;28;20225;-78
2024/02/22 08:13:43;;;;;;;0.40;0.40;;;;;;;9.99;100.00;98222.72;5084108;28;20227;-76
2024/02/22 08:16:10;;;;;;;0.83;0.30;;;;;;;9.88;100.00;98221.53;5084542;28;20638;-79
2024/02/22 08:18:38;;;;;;;0.30;0.30;;;;;;;10.06;100.00;98218.88;5094509;28;20200;-79
2024/02/22 08:21:07;;;;;;;0.40;0.40;;;;;;;10.19;100.00;98217.31;5086307;28;20222;-78
2024/02/22 08:23:34;;;;;;;0.40;0.40;;;;;;;10.09;100.00;98221.34;5093120;28;20270;-79
2024/02/22 08:26:02;;;;;;;0.30;0.30;;;;;;;10.26;100.00;98228.25;5098401;28;20209;-76
2024/02/22 08:28:29;;;;;;;0.50;0.37;;;;;;;10.30;100.00;98225.41;5098623;28;20199;-79
2024/02/22 08:30:56;;;;;;;1.83;0.37;;;;;;;10.25;100.00;98227.41;5093357;28;20249;-79
2024/02/22 08:33:25;;;;;;;0.53;0.53;;;;;;;10.17;100.00;98219.16;5094754;28;20282;-78
2024/02/22 08:35:52;;;;;;;0.80;0.33;;;;;;;10.18;100.00;98209.56;5092781;28;20196;-79
2024/02/22 08:38:18;;;;;;;0.80;0.80;;;;;;;10.32;100.00;98205.31;5087387;28;20203;-79
2024/02/22 08:40:45;;;;;;;0.57;0.40;;;;;;;10.17;100.00;98202.66;5094384;28;20195;-78
2024/02/22 08:43:14;;;;;;;0.50;0.43;;;;;;;10.12;100.00;98189.88;5094346;28;20220;-79
2024/02/22 08:45:41;;;;;;;1.50;0.57;;;;;;;10.00;100.00;98180.13;5093652;28;20574;-79
2024/02/22 08:48:08;;;;;;;0.50;0.50;;;;;;;10.01;100.00;98166.16;5093136;28;20211;-80
2024/02/22 08:50:35;;;;;;;0.50;0.50;;;;;;;10.09;100.00;98169.22;5093873;28;20201;-78
2024/02/22 08:53:01;;;;;;;0.40;0.40;;;;;;;10.02;100.00;98171.28;5097077;28;20228;-81
2024/02/22 08:55:27;;;;;;;0.83;0.50;;;;;;;10.05;100.00;98160.72;5095081;28;20197;-81
2024/02/22 08:57:54;;;;;;;1.87;0.50;;;;;;;10.26;100.00;98158.69;5093638;28;20220;-78
2024/02/22 09:00:22;;;;;;;0.43;0.43;;;;;;;10.29;100.00;98160.31;5095676;28;20200;-79
2024/02/22 09:02:51;;;;;;;0.93;0.50;;;;;;;10.40;100.00;98167.56;5096379;28;20224;-80
2024/02/22 09:05:17;;;;;;;0.60;0.43;;;;;;;10.27;100.00;98170.81;5095689;28;20611;-78
2024/02/22 09:07:45;;;;;;;0.67;0.40;;;;;;;10.38;100.00;98177.25;5098050;28;20198;-78
2024/02/22 09:10:11;;;;;;;1.57;0.50;;;;;;;10.47;100.00;98177.59;5108074;28;20196;-79
2024/02/22 09:12:40;;;;;;;0.83;0.50;;;;;;;10.46;100.00;98194.13;5105220;28;20258;-78
2024/02/22 09:15:07;;;;;;;0.67;0.67;;;;;;;10.34;100.00;98193.03;5101289;28;20201;-79
2024/02/22 09:17:35;;;;;;;0.63;0.60;;;;;;;10.44;100.00;98177.75;5087235;28;20228;-79
2024/02/22 09:20:04;;;;;;;0.63;0.50;;;;;;;10.51;100.00;98176.47;5087617;28;20205;-81
2024/02/22 09:22:30;;;;;;;0.83;0.50;;;;;;;10.50;100.00;98172.22;5096771;28;20206;-81
2024/02/22 09:24:56;;;;;;;0.40;0.40;;;;;;;10.49;100.00;98160.06;5095261;28;20200;-80
2024/02/22 09:27:23;;;;;;;0.67;0.60;;;;;;;10.56;100.00;98167.56;5095490;28;20196;-78
2024/02/22 09:29:49;;;;;;;0.50;0.50;;;;;;;10.60;100.00;98156.84;5094744;28;20264;-78
2024/02/22 09:32:15;;;;;;;0.47;0.43;;;;;;;10.65;100.00;98162.69;5088750;28;20227;-78
2024/02/22 09:34:44;;;;;;;0.50;0.50;;;;;;;10.49;100.00;98187.94;5097849;28;20225;-78
2024/02/22 09:37:10;;;;;;;1.60;0.47;;;;;;;10.53;100.00;98182.47;5096379;28;20201;-78
2024/02/22 09:39:38;;;;;;;0.50;0.50;;;;;;;10.66;100.00;98182.63;5097542;28;20247;-78
2024/02/22 09:42:05;;;;;;;0.80;0.60;;;;;;;10.40;100.00;98181.44;5098541;28;20204;-77
2024/02/22 09:44:33;;;;;;;0.50;0.50;;;;;;;10.56;100.00;98189.25;5097056;28;20700;-78
2024/02/22 09:47:01;;;;;;;0.40;0.40;;;;;;;10.58;100.00;98192.63;5096622;28;20279;-78
2024/02/22 09:49:27;;;;;;;0.50;0.50;;;;;;;10.63;100.00;98202.81;5096198;28;20292;-78
2024/02/22 09:51:56;;;;;;;0.50;0.50;;;;;;;10.61;100.00;98202.91;5094655;28;20229;-78
2024/02/22 09:54:25;;;;;;;0.80;0.40;;;;;;;10.72;100.00;98212.72;5095784;28;20220;-78
2024/02/22 09:56:51;;;;;;;0.57;0.53;;;;;;;10.78;100.00;98212.38;5095126;28;20196;-79
2024/02/22 09:59:18;;;;;;;0.60;0.60;;;;;;;10.74;100.00;98213.50;5096132;28;20615;-79
2024/02/22 10:01:45;;;;;;;0.53;0.53;;;;;;;10.85;100.00;98212.91;5095622;28;20196;-78
2024/02/22 10:04:13;;;;;;;0.50;0.50;;;;;;;10.87;100.00;98221.50;5094563;28;20220;-78
2024/02/22 10:06:39;;;;;;;1.30;0.60;;;;;;;10.73;100.00;98248.34;5092872;28;20253;-77
2024/02/22 10:12:32;;;;;;;0.73;0.60;;;;;;;10.78;100.00;98251.53;5087835;28;20223;-77
2024/02/22 10:14:59;;;;;;;1.10;0.60;;;;;;;11.02;100.00;98257.19;5100108;28;20664;-78
2024/02/22 10:17:28;;;;;;;0.60;0.60;;;;;;;10.89;100.00;98256.19;5099304;28;20654;-78
2024/02/22 10:19:56;;;;;;;0.70;0.60;;;;;;;11.06;100.00;98250.88;5097941;28;20205;-78
2024/02/22 10:22:22;;;;;;;1.10;0.50;;;;;;;11.15;100.00;98248.66;5097199;28;20247;-77
2024/02/22 10:24:49;;;;;;;0.70;0.63;;;;;;;11.27;100.00;98225.28;5096499;28;20235;-78
2024/02/22 10:27:15;;;;;;;1.03;0.60;;;;;;;11.18;100.00;98248.47;5085966;28;20204;-76
2024/02/22 10:29:43;;;;;;;0.50;0.50;;;;;;;11.21;100.00;98245.69;5094846;28;20620;-77
2024/02/22 10:32:16;;;;;;;0.60;0.60;;;;;;;11.28;100.00;98250.50;5096514;28;20302;-77
2024/02/22 10:34:44;;;;;;;0.70;0.70;;;;;;;11.50;100.00;98246.66;5097322;28;20219;-77
2024/02/22 10:37:11;;;;;;;0.65;0.65;;;;;;;11.60;100.00;98257.41;4392835;28;10021572;-77
2024/02/22 10:39:41;;;;;;;0.60;0.60;;;;;;;11.51;98.49;98293.56;5094668;28;20224;-79
2024/02/22 10:42:09;;;;;;;0.77;0.60;;;;;;;11.69;97.31;98298.66;5094301;28;20213;-78
2024/02/22 10:44:36;;;;;;;0.40;0.40;;;;;;;11.75;95.94;98331.44;5096313;28;20748;-79
2024/02/22 10:47:05;;;;;;;0.30;0.30;;;;;;;11.75;95.12;98339.28;5094729;28;20678;-79
2024/02/22 10:49:32;;;;;;;0.90;0.90;;;;;;;11.82;94.02;98365.00;5097289;28;20212;-79
2024/02/22 10:52:00;;;;;;;0.30;0.30;;;;;;;12.09;93.97;98354.75;5094508;28;20225;-79
2024/02/22 10:54:32;;;;;;;0.67;0.67;;;;;;;12.23;93.16;98366.13;5095348;28;20223;-78
2024/02/22 10:57:01;;;;;;;1.20;1.20;;;;;;;12.35;91.76;98380.28;5094556;28;20210;-79
2024/02/22 10:59:29;;;;;;;0.80;0.80;;;;;;;12.23;90.90;98421.94;5094118;28;20516;-78
2024/02/22 11:01:56;;;;;;;4.43;4.13;;;;;;;12.31;92.03;98404.00;5095180;28;20208;-78
2024/02/22 11:04:24;;;;;;;0.93;0.87;;;;;;;12.39;89.33;98414.03;5093454;28;20732;-77
2024/02/22 11:06:51;;;;;;;0.70;0.67;;;;;;;12.39;87.17;98462.88;5093928;28;20206;-78
2024/02/22 11:09:18;;;;;;;2.93;2.73;;;;;;;12.36;88.05;98463.06;5097795;28;20216;-79
2024/02/22 11:11:45;;;;;;;10.60;9.60;;;;;;;12.21;87.96;98477.88;5093638;28;20237;-78
2024/02/22 11:14:13;;;;;;;1.07;1.07;;;;;;;12.19;86.96;98477.97;5091979;28;20231;-79
2024/02/22 11:16:40;;;;;;;2.40;2.20;;;;;;;12.52;88.75;98445.53;5092154;28;20640;-78
2024/02/22 11:19:09;;;;;;;0.70;0.70;;;;;;;12.73;87.59;98455.69;5092304;28;20292;-78
2024/02/22 11:21:37;;;;;;;0.30;0.30;;;;;;;12.90;87.54;98445.00;5092463;28;20300;-78
2024/02/22 11:24:08;;;;;;;0.30;0.30;;;;;;;13.04;90.23;98405.75;5091688;28;20318;-79
2024/02/22 11:26:35;;;;;;;1.43;0.50;;;;;;;12.98;84.21;98445.38;5091616;28;20211;-77
2024/02/22 11:29:01;;;;;;;0.30;0.30;;;;;;;13.12;85.38;98457.66;5091977;28;20209;-77
2024/02/22 11:31:28;;;;;;;0.50;0.30;;;;;;;13.24;84.74;98471.75;5093003;28;20733;-79
2024/02/22 11:33:56;;;;;;;0.30;0.30;;;;;;;13.43;85.87;98474.13;5094185;28;20977;-79
2024/02/22 11:36:24;;;;;;;0.97;0.30;;;;;;;13.56;85.84;98464.56;5084598;28;20202;-78